Ana Sayfa
METAR-TAF:

METAR-TAF

Havaalanları :

McGregor Executive Airport

Waco, Teksas, Amerika Birleşik Devletleri

Enlem: 31-29N, Boylam: 097-19W, yükseklik: 180 m

Güncel hava durumu gözlemi

Rapor saat 16:56 UTC de 17 dakika önce yapıldı.
Rüzgar kuzeydan 7 kt
Sıcaklık 6°C
Nem 81%
Basınç 1027 hPa
Görüş mesafesi: 16.1 km
5500 ft yükseklikte çok bulutlu

METAR: KPWG 141656Z AUTO 36007KT 10SM OVC055 06/03 A3034 RMK AO2 SLP275 T00560028 $

Saat: 11:13 (17:13 UTC)


TAF: eksik

4.000'den fazla havaalanı için hava durumu gözlemleri ve tahminleri (METAR ve TAF raporları).

Kullanılabilir istasyonlar harita üzerinde sarı ve kırmızı noktalarla gösterilir.

İstasyonun adını görmek için fareyi noktanın üzerinde gezdirin.

Sonrasında hava gözlem ve tahminlerini görmek için tıklayın.

Haritayı değiştirmek için: yaklaştırmak için siyah artı işaretli yeşil düğmeye ve uzaklaştırmak için de eksi işaretli düğmeye hızla tıklayın; bitişik haritalar için yeşil okları kullanın.


METAR-TAF: